sensor_id;sensor_type;location;lat;lon;timestamp;pressure;altitude;pressure_sealevel;temperature;humidity
6833;BME280;3454;42.654;23.378;2023-05-29T00:01:18;64584.22;;;15.42;100.00
6833;BME280;3454;42.654;23.378;2023-05-29T00:03:44;64585.34;;;15.43;100.00
6833;BME280;3454;42.654;23.378;2023-05-29T00:06:10;64567.38;;;15.29;100.00
6833;BME280;3454;42.654;23.378;2023-05-29T00:08:36;64573.78;;;15.32;100.00
6833;BME280;3454;42.654;23.378;2023-05-29T00:11:01;64562.78;;;15.22;100.00
6833;BME280;3454;42.654;23.378;2023-05-29T00:13:33;64559.34;;;15.24;100.00
6833;BME280;3454;42.654;23.378;2023-05-29T00:15:58;64572.88;;;15.34;100.00
6833;BME280;3454;42.654;23.378;2023-05-29T00:18:25;64577.06;;;15.35;100.00
6833;BME280;3454;42.654;23.378;2023-05-29T00:20:52;64578.91;;;15.39;100.00
6833;BME280;3454;42.654;23.378;2023-05-29T00:23:18;64581.66;;;15.42;100.00
6833;BME280;3454;42.654;23.378;2023-05-29T00:25:43;64570.34;;;15.34;100.00
6833;BME280;3454;42.654;23.378;2023-05-29T00:28:09;64579.47;;;15.40;100.00
6833;BME280;3454;42.654;23.378;2023-05-29T00:30:35;64578.03;;;15.41;100.00
6833;BME280;3454;42.654;23.378;2023-05-29T00:33:00;64568.47;;;15.30;100.00
6833;BME280;3454;42.654;23.378;2023-05-29T00:35:26;64566.28;;;15.28;100.00
6833;BME280;3454;42.654;23.378;2023-05-29T00:37:51;64560.97;;;15.25;100.00
6833;BME280;3454;42.654;23.378;2023-05-29T00:40:17;64557.47;;;15.20;100.00
6833;BME280;3454;42.654;23.378;2023-05-29T00:42:42;64530.88;;;14.93;100.00
6833;BME280;3454;42.654;23.378;2023-05-29T00:45:08;64519.00;;;14.84;100.00
6833;BME280;3454;42.654;23.378;2023-05-29T00:47:34;64508.56;;;14.75;100.00
6833;BME280;3454;42.654;23.378;2023-05-29T00:49:59;64505.47;;;14.74;100.00
6833;BME280;3454;42.654;23.378;2023-05-29T00:52:26;64527.25;;;14.92;100.00
6833;BME280;3454;42.654;23.378;2023-05-29T00:54:52;64516.03;;;14.79;100.00
6833;BME280;3454;42.654;23.378;2023-05-29T00:57:18;64501.63;;;14.71;100.00
6833;BME280;3454;42.654;23.378;2023-05-29T00:59:44;64491.88;;;14.57;100.00
6833;BME280;3454;42.654;23.378;2023-05-29T01:02:11;64489.88;;;14.58;100.00
6833;BME280;3454;42.654;23.378;2023-05-29T01:04:38;64500.31;;;14.67;100.00
6833;BME280;3454;42.654;23.378;2023-05-29T01:07:04;64503.81;;;14.73;100.00
6833;BME280;3454;42.654;23.378;2023-05-29T01:09:30;64495.59;;;14.65;100.00
6833;BME280;3454;42.654;23.378;2023-05-29T01:20:50;64526.69;;;14.91;100.00
6833;BME280;3454;42.654;23.378;2023-05-29T01:28:52;64538.25;;;15.02;100.00
6833;BME280;3454;42.654;23.378;2023-05-29T01:31:22;64534.94;;;14.99;100.00
6833;BME280;3454;42.654;23.378;2023-05-29T01:33:55;64515.69;;;14.81;100.00
6833;BME280;3454;42.654;23.378;2023-05-29T01:36:22;64516.25;;;14.82;100.00
6833;BME280;3454;42.654;23.378;2023-05-29T01:38:49;64500.66;;;14.65;100.00
6833;BME280;3454;42.654;23.378;2023-05-29T01:41:16;64506.69;;;14.71;100.00
6833;BME280;3454;42.654;23.378;2023-05-29T01:43:45;64520.44;;;14.83;100.00
6833;BME280;3454;42.654;23.378;2023-05-29T01:46:14;64505.06;;;14.69;100.00
6833;BME280;3454;42.654;23.378;2023-05-29T01:48:44;64497.22;;;14.67;100.00
6833;BME280;3454;42.654;23.378;2023-05-29T01:51:11;64486.03;;;14.54;100.00
6833;BME280;3454;42.654;23.378;2023-05-29T01:53:40;64480.53;;;14.49;100.00
6833;BME280;3454;42.654;23.378;2023-05-29T01:56:06;64452.50;;;14.23;100.00
6833;BME280;3454;42.654;23.378;2023-05-29T01:58:34;64440.63;;;14.15;100.00
6833;BME280;3454;42.654;23.378;2023-05-29T02:01:01;64448.31;;;14.22;100.00
6833;BME280;3454;42.654;23.378;2023-05-29T02:03:27;64462.41;;;14.32;100.00
6833;BME280;3454;42.654;23.378;2023-05-29T02:05:57;64459.13;;;14.29;100.00
6833;BME280;3454;42.654;23.378;2023-05-29T02:08:22;64450.84;;;14.22;100.00
6833;BME280;3454;42.654;23.378;2023-05-29T02:10:48;64448.09;;;14.19;100.00
6833;BME280;3454;42.654;23.378;2023-05-29T02:13:13;64432.72;;;14.05;100.00
6833;BME280;3454;42.654;23.378;2023-05-29T02:15:38;64428.88;;;14.02;100.00
6833;BME280;3454;42.654;23.378;2023-05-29T02:18:04;64406.91;;;13.82;100.00
6833;BME280;3454;42.654;23.378;2023-05-29T02:20:30;64394.41;;;13.66;100.00
6833;BME280;3454;42.654;23.378;2023-05-29T02:22:55;64391.88;;;13.66;100.00
6833;BME280;3454;42.654;23.378;2023-05-29T02:25:20;64395.72;;;13.69;100.00
6833;BME280;3454;42.654;23.378;2023-05-29T02:27:46;64401.44;;;13.77;100.00
6833;BME280;3454;42.654;23.378;2023-05-29T02:30:11;64411.09;;;13.83;100.00
6833;BME280;3454;42.654;23.378;2023-05-29T02:32:37;64420.97;;;13.92;100.00
6833;BME280;3454;42.654;23.378;2023-05-29T02:35:03;64428.34;;;14.01;100.00
6833;BME280;3454;42.654;23.378;2023-05-29T02:37:28;64429.44;;;14.02;100.00
6833;BME280;3454;42.654;23.378;2023-05-29T02:39:54;64435.47;;;14.08;100.00
6833;BME280;3454;42.654;23.378;2023-05-29T02:42:20;64444.25;;;14.16;100.00
6833;BME280;3454;42.654;23.378;2023-05-29T02:44:45;64450.66;;;14.19;100.00
6833;BME280;3454;42.654;23.378;2023-05-29T02:47:11;64449.75;;;14.21;100.00
6833;BME280;3454;42.654;23.378;2023-05-29T02:49:36;64448.66;;;14.20;100.00
6833;BME280;3454;42.654;23.378;2023-05-29T02:52:01;64460.41;;;14.33;100.00
6833;BME280;3454;42.654;23.378;2023-05-29T02:54:27;64458.56;;;14.29;100.00
6833;BME280;3454;42.654;23.378;2023-05-29T02:56:52;64467.91;;;14.38;100.00
6833;BME280;3454;42.654;23.378;2023-05-29T02:59:18;64539.88;;;15.03;100.00
6833;BME280;3454;42.654;23.378;2023-05-29T03:01:43;64563.31;;;15.23;100.00
6833;BME280;3454;42.654;23.378;2023-05-29T03:04:12;64545.41;;;15.08;100.00
6833;BME280;3454;42.654;23.378;2023-05-29T03:06:37;64544.63;;;15.05;100.00
6833;BME280;3454;42.654;23.378;2023-05-29T03:09:03;64542.84;;;15.08;100.00
6833;BME280;3454;42.654;23.378;2023-05-29T03:11:30;64520.09;;;14.85;100.00
6833;BME280;3454;42.654;23.378;2023-05-29T03:13:56;64506.91;;;14.73;100.00
6833;BME280;3454;42.654;23.378;2023-05-29T03:16:21;64499.22;;;14.66;100.00
6833;BME280;3454;42.654;23.378;2023-05-29T03:18:47;64492.63;;;14.60;100.00
6833;BME280;3454;42.654;23.378;2023-05-29T03:21:13;64497.91;;;14.63;100.00
6833;BME280;3454;42.654;23.378;2023-05-29T03:23:38;64483.50;;;14.54;100.00
6833;BME280;3454;42.654;23.378;2023-05-29T03:26:04;64483.06;;;14.49;100.00
6833;BME280;3454;42.654;23.378;2023-05-29T03:28:30;64487.13;;;14.55;100.00
6833;BME280;3454;42.654;23.378;2023-05-29T03:30:56;64501.75;;;14.66;100.00
6833;BME280;3454;42.654;23.378;2023-05-29T03:33:21;64500.09;;;14.65;100.00
6833;BME280;3454;42.654;23.378;2023-05-29T03:35:47;64523.75;;;14.86;100.00
6833;BME280;3454;42.654;23.378;2023-05-29T03:38:13;64531.44;;;14.93;100.00
6833;BME280;3454;42.654;23.378;2023-05-29T03:40:38;64528.88;;;14.93;100.00
6833;BME280;3454;42.654;23.378;2023-05-29T03:43:03;64529.22;;;14.91;100.00
6833;BME280;3454;42.654;23.378;2023-05-29T03:45:29;64529.44;;;14.94;100.00
6833;BME280;3454;42.654;23.378;2023-05-29T03:47:54;64537.69;;;15.01;100.00
6833;BME280;3454;42.654;23.378;2023-05-29T03:50:20;64522.28;;;14.87;100.00
6833;BME280;3454;42.654;23.378;2023-05-29T03:52:45;64510.41;;;14.79;100.00
6833;BME280;3454;42.654;23.378;2023-05-29T03:55:12;64509.09;;;14.75;100.00
6833;BME280;3454;42.654;23.378;2023-05-29T03:57:45;64524.50;;;14.89;100.00
6833;BME280;3454;42.654;23.378;2023-05-29T04:00:11;64520.09;;;14.85;100.00
6833;BME280;3454;42.654;23.378;2023-05-29T04:02:40;64534.19;;;14.96;100.00
6833;BME280;3454;42.654;23.378;2023-05-29T04:05:07;64537.34;;;15.03;100.00
6833;BME280;3454;42.654;23.378;2023-05-29T04:07:34;64548.34;;;15.13;100.00
6833;BME280;3454;42.654;23.378;2023-05-29T04:10:01;64556.38;;;15.19;100.00
6833;BME280;3454;42.654;23.378;2023-05-29T04:12:27;64548.13;;;15.11;100.00
6833;BME280;3454;42.654;23.378;2023-05-29T04:14:52;64564.06;;;15.26;100.00
6833;BME280;3454;42.654;23.378;2023-05-29T04:17:18;64560.22;;;15.22;100.00
6833;BME280;3454;42.654;23.378;2023-05-29T04:19:43;64567.91;;;15.29;100.00
6833;BME280;3454;42.654;23.378;2023-05-29T04:22:09;64563.53;;;15.25;100.00
6833;BME280;3454;42.654;23.378;2023-05-29T04:24:34;64556.38;;;15.19;100.00
6833;BME280;3454;42.654;23.378;2023-05-29T04:27:01;64561.88;;;15.24;100.00
6833;BME280;3454;42.654;23.378;2023-05-29T04:29:28;64557.47;;;15.20;100.00
6833;BME280;3454;42.654;23.378;2023-05-29T04:31:53;64566.28;;;15.28;100.00
6833;BME280;3454;42.654;23.378;2023-05-29T04:34:20;64589.41;;;15.49;100.00
6833;BME280;3454;42.654;23.378;2023-05-29T04:36:47;64619.31;;;15.78;100.00
6833;BME280;3454;42.654;23.378;2023-05-29T04:39:13;64663.44;;;16.14;100.00
6833;BME280;3454;42.654;23.378;2023-05-29T04:41:39;64733.59;;;16.81;100.00
6833;BME280;3454;42.654;23.378;2023-05-29T04:44:06;64766.66;;;17.11;100.00
6833;BME280;3454;42.654;23.378;2023-05-29T04:46:32;64791.97;;;17.34;100.00
6833;BME280;3454;42.654;23.378;2023-05-29T04:49:00;64789.78;;;17.32;100.00
6833;BME280;3454;42.654;23.378;2023-05-29T04:51:28;64887.56;;;18.23;100.00
6833;BME280;3454;42.654;23.378;2023-05-29T04:53:55;64946.03;;;18.77;100.00
6833;BME280;3454;42.654;23.378;2023-05-29T04:56:22;64975.06;;;19.01;100.00
6833;BME280;3454;42.654;23.378;2023-05-29T04:58:47;64965.34;;;18.94;100.00
6833;BME280;3454;42.654;23.378;2023-05-29T05:01:14;64966.78;;;18.93;100.00
6833;BME280;3454;42.654;23.378;2023-05-29T05:03:40;64970.84;;;18.99;100.00
6833;BME280;3454;42.654;23.378;2023-05-29T05:06:06;64990.16;;;19.17;100.00
6833;BME280;3454;42.654;23.378;2023-05-29T05:08:33;65021.66;;;19.46;100.00
6833;BME280;3454;42.654;23.378;2023-05-29T05:10:59;65041.00;;;19.63;99.04
6833;BME280;3454;42.654;23.378;2023-05-29T05:13:25;65068.38;;;19.86;100.00
6833;BME280;3454;42.654;23.378;2023-05-29T05:15:51;64969.22;;;18.98;97.80
6833;BME280;3454;42.654;23.378;2023-05-29T05:18:16;64873.97;;;18.13;100.00
6833;BME280;3454;42.654;23.378;2023-05-29T05:20:42;64852.28;;;17.91;100.00
6833;BME280;3454;42.654;23.378;2023-05-29T05:23:07;64848.97;;;17.88;100.00
6833;BME280;3454;42.654;23.378;2023-05-29T05:25:33;64857.78;;;17.96;100.00
6833;BME280;3454;42.654;23.378;2023-05-29T05:28:00;64848.41;;;17.88;100.00
6833;BME280;3454;42.654;23.378;2023-05-29T05:30:25;64861.44;;;17.97;100.00
6833;BME280;3454;42.654;23.378;2023-05-29T05:32:51;64816.25;;;17.56;100.00
6833;BME280;3454;42.654;23.378;2023-05-29T05:35:16;64792.19;;;17.36;100.00
6833;BME280;3454;42.654;23.378;2023-05-29T05:37:41;64781.72;;;17.27;100.00
6833;BME280;3454;42.654;23.378;2023-05-29T05:40:07;64791.97;;;17.34;100.00
6833;BME280;3454;42.654;23.378;2023-05-29T05:42:34;64770.72;;;17.17;100.00
6833;BME280;3454;42.654;23.378;2023-05-29T05:45:00;64767.41;;;17.14;100.00
6833;BME280;3454;42.654;23.378;2023-05-29T05:47:26;64785.38;;;17.28;100.00
6833;BME280;3454;42.654;23.378;2023-05-29T05:49:53;64767.00;;;17.09;100.00
6833;BME280;3454;42.654;23.378;2023-05-29T05:52:19;64768.84;;;17.13;100.00
6833;BME280;3454;42.654;23.378;2023-05-29T05:54:44;64773.78;;;17.17;100.00
6833;BME280;3454;42.654;23.378;2023-05-29T05:57:10;64768.84;;;17.13;100.00
6833;BME280;3454;42.654;23.378;2023-05-29T05:59:36;64750.88;;;16.99;100.00
6833;BME280;3454;42.654;23.378;2023-05-29T06:02:01;64746.47;;;16.95;100.00
6833;BME280;3454;42.654;23.378;2023-05-29T06:04:29;64747.91;;;16.94;100.00
6833;BME280;3454;42.654;23.378;2023-05-29T06:06:54;64757.50;;;17.05;100.00
6833;BME280;3454;42.654;23.378;2023-05-29T06:09:20;64764.63;;;17.11;100.00
6833;BME280;3454;42.654;23.378;2023-05-29T06:11:45;64770.72;;;17.17;100.00
6833;BME280;3454;42.654;23.378;2023-05-29T06:14:11;64770.72;;;17.17;100.00
6833;BME280;3454;42.654;23.378;2023-05-29T06:16:36;64789.44;;;17.34;100.00
6833;BME280;3454;42.654;23.378;2023-05-29T06:19:02;64796.94;;;17.38;100.00
6833;BME280;3454;42.654;23.378;2023-05-29T06:21:29;64803.56;;;17.44;100.00
6833;BME280;3454;42.654;23.378;2023-05-29T06:23:55;64799.16;;;17.40;100.00
6833;BME280;3454;42.654;23.378;2023-05-29T06:26:22;64788.88;;;17.33;100.00
6833;BME280;3454;42.654;23.378;2023-05-29T06:28:50;64808.72;;;17.51;100.00
6833;BME280;3454;42.654;23.378;2023-05-29T06:31:15;64804.66;;;17.45;100.00
6833;BME280;3454;42.654;23.378;2023-05-29T06:33:41;64819.75;;;17.61;100.00
6833;BME280;3454;42.654;23.378;2023-05-29T06:36:06;64807.63;;;17.50;100.00
6833;BME280;3454;42.654;23.378;2023-05-29T06:38:32;64803.75;;;17.47;100.00
6833;BME280;3454;42.654;23.378;2023-05-29T06:40:58;64814.81;;;17.57;100.00
6833;BME280;3454;42.654;23.378;2023-05-29T06:43:23;64823.97;;;17.63;100.00
6833;BME280;3454;42.654;23.378;2023-05-29T06:45:56;64815.50;;;17.53;100.00
6833;BME280;3454;42.654;23.378;2023-05-29T06:48:21;64816.25;;;17.56;100.00
6833;BME280;3454;42.654;23.378;2023-05-29T06:50:47;64841.72;;;17.75;100.00
6833;BME280;3454;42.654;23.378;2023-05-29T06:53:13;64814.25;;;17.56;100.00
6833;BME280;3454;42.654;23.378;2023-05-29T06:55:38;64827.59;;;17.64;100.00
6833;BME280;3454;42.654;23.378;2023-05-29T06:58:06;64844.91;;;17.82;100.00
6833;BME280;3454;42.654;23.378;2023-05-29T07:00:31;64847.09;;;17.84;100.00
6833;BME280;3454;42.654;23.378;2023-05-29T07:02:57;64866.59;;;18.04;100.00
6833;BME280;3454;42.654;23.378;2023-05-29T07:05:22;64849.31;;;17.86;100.00
6833;BME280;3454;42.654;23.378;2023-05-29T07:07:48;64875.03;;;18.07;100.00
6833;BME280;3454;42.654;23.378;2023-05-29T07:10:13;64846.75;;;17.86;100.00
6833;BME280;3454;42.654;23.378;2023-05-29T07:12:38;64862.19;;;18.00;99.77
6833;BME280;3454;42.654;23.378;2023-05-29T07:15:04;64883.16;;;18.19;100.00
6833;BME280;3454;42.654;23.378;2023-05-29T07:17:30;64894.88;;;18.25;100.00
6833;BME280;3454;42.654;23.378;2023-05-29T07:19:56;64869.16;;;18.04;100.00
6833;BME280;3454;42.654;23.378;2023-05-29T07:22:21;64898.59;;;18.33;98.56
6833;BME280;3454;42.654;23.378;2023-05-29T07:24:46;64915.16;;;18.49;97.84
6833;BME280;3454;42.654;23.378;2023-05-29T07:27:12;64898.59;;;18.33;98.64
6833;BME280;3454;42.654;23.378;2023-05-29T07:29:37;64884.81;;;18.21;98.38
6833;BME280;3454;42.654;23.378;2023-05-29T07:32:03;64879.66;;;18.14;98.04
6833;BME280;3454;42.654;23.378;2023-05-29T07:34:28;64869.91;;;18.07;97.97
6833;BME280;3454;42.654;23.378;2023-05-29T07:37:01;64901.69;;;18.34;97.14
6833;BME280;3454;42.654;23.378;2023-05-29T07:39:28;64893.06;;;18.28;99.66
6833;BME280;3454;42.654;23.378;2023-05-29T07:41:53;64906.53;;;18.43;97.83
6833;BME280;3454;42.654;23.378;2023-05-29T07:44:19;64889.00;;;18.22;97.60
6833;BME280;3454;42.654;23.378;2023-05-29T07:46:45;64902.78;;;18.35;97.28
6833;BME280;3454;42.654;23.378;2023-05-29T07:49:11;64925.09;;;18.58;98.11
6833;BME280;3454;42.654;23.378;2023-05-29T07:51:36;64932.25;;;18.64;98.51
6833;BME280;3454;42.654;23.378;2023-05-29T07:54:02;64925.09;;;18.58;94.52
6833;BME280;3454;42.654;23.378;2023-05-29T07:56:28;65020.22;;;19.47;100.00
6833;BME280;3454;42.654;23.378;2023-05-29T07:58:53;65054.59;;;19.73;91.42
6833;BME280;3454;42.654;23.378;2023-05-29T08:01:20;65010.81;;;19.38;94.83
6833;BME280;3454;42.654;23.378;2023-05-29T08:03:46;64969.22;;;18.98;94.59
6833;BME280;3454;42.654;23.378;2023-05-29T08:06:13;64968.09;;;18.97;93.63
6833;BME280;3454;42.654;23.378;2023-05-29T08:08:38;64969.22;;;18.98;95.77
6833;BME280;3454;42.654;23.378;2023-05-29T08:11:04;64996.78;;;19.23;92.53
6833;BME280;3454;42.654;23.378;2023-05-29T08:13:30;64994.59;;;19.21;95.00
6833;BME280;3454;42.654;23.378;2023-05-29T08:15:56;64998.81;;;19.22;92.68
6833;BME280;3454;42.654;23.378;2023-05-29T08:18:25;64994.78;;;19.23;96.04
6833;BME280;3454;42.654;23.378;2023-05-29T08:20:50;65020.91;;;19.43;93.77
6833;BME280;3454;42.654;23.378;2023-05-29T08:23:16;64993.84;;;19.18;93.31
6833;BME280;3454;42.654;23.378;2023-05-29T08:25:42;64991.63;;;19.16;93.66
6833;BME280;3454;42.654;23.378;2023-05-29T08:28:07;65007.09;;;19.30;91.56
6833;BME280;3454;42.654;23.378;2023-05-29T08:30:33;65022.56;;;19.44;93.37
6833;BME280;3454;42.654;23.378;2023-05-29T08:32:58;65048.38;;;19.72;89.64
6833;BME280;3454;42.654;23.378;2023-05-29T08:35:23;65039.88;;;19.62;90.88
6833;BME280;3454;42.654;23.378;2023-05-29T08:37:49;64997.91;;;19.24;92.81
6833;BME280;3454;42.654;23.378;2023-05-29T08:40:14;64982.66;;;19.12;93.81
6833;BME280;3454;42.654;23.378;2023-05-29T08:42:46;65016.34;;;19.43;96.31
6833;BME280;3454;42.654;23.378;2023-05-29T08:45:14;65045.94;;;19.68;90.37
6833;BME280;3454;42.654;23.378;2023-05-29T08:47:41;65079.06;;;19.98;87.81
6833;BME280;3454;42.654;23.378;2023-05-29T08:50:09;65089.59;;;20.07;87.48
6833;BME280;3454;42.654;23.378;2023-05-29T08:52:35;65073.22;;;19.95;89.11
6833;BME280;3454;42.654;23.378;2023-05-29T08:55:01;65057.00;;;19.78;86.91
6833;BME280;3454;42.654;23.378;2023-05-29T08:57:29;65041.69;;;19.59;86.66
6833;BME280;3454;42.654;23.378;2023-05-29T08:59:55;65037.31;;;19.62;85.99
6833;BME280;3454;42.654;23.378;2023-05-29T09:02:21;65056.44;;;19.77;84.34
6833;BME280;3454;42.654;23.378;2023-05-29T09:04:47;65081.28;;;20.00;84.68
6833;BME280;3454;42.654;23.378;2023-05-29T09:07:18;65094.19;;;20.14;85.17
6833;BME280;3454;42.654;23.378;2023-05-29T09:09:48;65116.13;;;20.32;84.50
6833;BME280;3454;42.654;23.378;2023-05-29T09:12:16;65124.41;;;20.39;79.22
6833;BME280;3454;42.654;23.378;2023-05-29T09:14:42;65131.59;;;20.46;76.74
6833;BME280;3454;42.654;23.378;2023-05-29T09:17:11;65197.56;;;21.08;76.55
6833;BME280;3454;42.654;23.378;2023-05-29T09:19:37;65229.63;;;21.37;70.40
6833;BME280;3454;42.654;23.378;2023-05-29T09:22:10;65256.72;;;21.62;73.76
6833;BME280;3454;42.654;23.378;2023-05-29T09:24:36;65238.84;;;21.43;68.89
6833;BME280;3454;42.654;23.378;2023-05-29T09:27:04;65214.50;;;21.21;72.08
6833;BME280;3454;42.654;23.378;2023-05-29T09:29:36;65185.56;;;20.92;72.84
6833;BME280;3454;42.654;23.378;2023-05-29T09:32:06;65181.66;;;20.89;74.35
6833;BME280;3454;42.654;23.378;2023-05-29T09:34:32;65189.81;;;21.01;74.29
6833;BME280;3454;42.654;23.378;2023-05-29T09:37:06;65238.47;;;21.45;86.25
6833;BME280;3454;42.654;23.378;2023-05-29T09:39:44;65268.72;;;21.70;89.61
6833;BME280;3454;42.654;23.378;2023-05-29T09:42:10;65297.69;;;21.99;86.49
6833;BME280;3454;42.654;23.378;2023-05-29T09:44:36;65288.84;;;21.91;72.26
6833;BME280;3454;42.654;23.378;2023-05-29T09:47:02;65270.72;;;21.70;75.37
6833;BME280;3454;42.654;23.378;2023-05-29T09:49:27;65239.59;;;21.46;70.14
6833;BME280;3454;42.654;23.378;2023-05-29T09:51:54;65213.41;;;21.20;74.31
6833;BME280;3454;42.654;23.378;2023-05-29T09:54:20;65173.22;;;20.86;73.35
6833;BME280;3454;42.654;23.378;2023-05-29T09:56:46;65219.28;;;21.23;85.48
6833;BME280;3454;42.654;23.378;2023-05-29T09:59:14;65247.16;;;21.51;73.38
6833;BME280;3454;42.654;23.378;2023-05-29T10:01:41;65307.47;;;22.06;73.82
6833;BME280;3454;42.654;23.378;2023-05-29T10:04:08;65286.44;;;21.87;69.59
6833;BME280;3454;42.654;23.378;2023-05-29T10:06:36;65289.19;;;21.89;69.85
6833;BME280;3454;42.654;23.378;2023-05-29T10:09:05;65313.00;;;22.11;70.82
6833;BME280;3454;42.654;23.378;2023-05-29T10:11:31;65317.06;;;22.17;69.14
6833;BME280;3454;42.654;23.378;2023-05-29T10:14:00;65340.66;;;22.36;69.46
6833;BME280;3454;42.654;23.378;2023-05-29T10:16:28;65318.19;;;22.18;67.22
6833;BME280;3454;42.654;23.378;2023-05-29T10:18:56;65296.59;;;21.98;67.14
6833;BME280;3454;42.654;23.378;2023-05-29T10:21:22;65277.56;;;21.79;67.20
6833;BME280;3454;42.654;23.378;2023-05-29T10:23:50;65233.53;;;21.41;67.87
6833;BME280;3454;42.654;23.378;2023-05-29T10:26:24;65219.69;;;21.28;72.45
6833;BME280;3454;42.654;23.378;2023-05-29T10:29:22;65228.34;;;21.34;72.50
6833;BME280;3454;42.654;23.378;2023-05-29T10:40:03;65208.44;;;21.16;72.25
6833;BME280;3454;42.654;23.378;2023-05-29T10:42:49;65207.88;;;21.15;70.73
6833;BME280;3454;42.654;23.378;2023-05-29T10:50:42;65157.19;;;20.71;75.04
6833;BME280;3454;42.654;23.378;2023-05-29T10:53:09;65169.16;;;20.80;71.85
6833;BME280;3454;42.654;23.378;2023-05-29T10:55:44;65161.41;;;20.73;74.65
6833;BME280;3454;42.654;23.378;2023-05-29T10:58:30;65155.56;;;20.70;74.78
6833;BME280;3454;42.654;23.378;2023-05-29T11:00:55;65212.84;;;21.20;74.98
6833;BME280;3454;42.654;23.378;2023-05-29T11:03:32;65315.19;;;22.13;74.18
6833;BME280;3454;42.654;23.378;2023-05-29T11:08:47;65421.16;;;23.11;63.43
6833;BME280;3454;42.654;23.378;2023-05-29T11:11:37;65471.03;;;23.57;64.54
6833;BME280;3454;42.654;23.378;2023-05-29T11:14:06;65454.97;;;23.42;60.82
6833;BME280;3454;42.654;23.378;2023-05-29T11:18:59;65419.66;;;23.05;62.05
6833;BME280;3454;42.654;23.378;2023-05-29T11:21:33;65395.13;;;22.88;64.45
6833;BME280;3454;42.654;23.378;2023-05-29T11:24:00;65333.13;;;22.31;62.74
6833;BME280;3454;42.654;23.378;2023-05-29T11:26:30;65307.25;;;22.03;63.92
6833;BME280;3454;42.654;23.378;2023-05-29T11:29:14;65302.47;;;22.01;63.58
6833;BME280;3454;42.654;23.378;2023-05-29T11:31:40;65366.91;;;22.62;63.66
6833;BME280;3454;42.654;23.378;2023-05-29T11:34:09;65343.41;;;22.38;64.20
6833;BME280;3454;42.654;23.378;2023-05-29T11:36:36;65310.41;;;22.11;65.35
6833;BME280;3454;42.654;23.378;2023-05-29T11:39:03;65261.50;;;21.64;67.30
6833;BME280;3454;42.654;23.378;2023-05-29T11:41:29;65234.03;;;21.34;68.99
6833;BME280;3454;42.654;23.378;2023-05-29T11:44:02;65274.22;;;21.75;68.38
6833;BME280;3454;42.654;23.378;2023-05-29T11:46:30;65240.50;;;21.45;71.16
6833;BME280;3454;42.654;23.378;2023-05-29T11:49:00;65242.50;;;21.44;68.55
6833;BME280;3454;42.654;23.378;2023-05-29T11:51:26;65183.72;;;20.96;72.42
6833;BME280;3454;42.654;23.378;2023-05-29T11:53:52;65157.91;;;20.67;79.61
6833;BME280;3454;42.654;23.378;2023-05-29T11:56:26;65113.91;;;20.30;84.71
6833;BME280;3454;42.654;23.378;2023-05-29T11:58:52;65076.31;;;19.95;92.47
6833;BME280;3454;42.654;23.378;2023-05-29T12:01:22;65054.25;;;19.75;93.28
6833;BME280;3454;42.654;23.378;2023-05-29T12:03:49;65034.91;;;19.58;93.37
6833;BME280;3454;42.654;23.378;2023-05-29T12:06:15;65008.97;;;19.34;97.75
6833;BME280;3454;42.654;23.378;2023-05-29T12:08:40;64990.50;;;19.15;98.88
6833;BME280;3454;42.654;23.378;2023-05-29T12:11:06;64978.38;;;19.04;100.00
6833;BME280;3454;42.654;23.378;2023-05-29T12:13:32;64962.59;;;18.92;100.00
6833;BME280;3454;42.654;23.378;2023-05-29T12:16:00;64968.09;;;18.97;100.00
6833;BME280;3454;42.654;23.378;2023-05-29T12:18:28;64953.97;;;18.86;100.00
6833;BME280;3454;42.654;23.378;2023-05-29T12:21:01;64949.34;;;18.80;100.00
6833;BME280;3454;42.654;23.378;2023-05-29T12:23:30;64946.38;;;18.75;100.00
6833;BME280;3454;42.654;23.378;2023-05-29T12:25:57;64950.44;;;18.81;99.87
6833;BME280;3454;42.654;23.378;2023-05-29T12:28:23;64956.53;;;18.86;97.02
6833;BME280;3454;42.654;23.378;2023-05-29T12:30:49;64961.47;;;18.91;95.84
6833;BME280;3454;42.654;23.378;2023-05-29T12:33:29;64937.75;;;18.69;99.15
6833;BME280;3454;42.654;23.378;2023-05-29T12:35:55;64928.19;;;18.58;100.00
6833;BME280;3454;42.654;23.378;2023-05-29T12:38:25;64941.63;;;18.73;100.00
6833;BME280;3454;42.654;23.378;2023-05-29T12:40:52;64939.41;;;18.71;100.00
6833;BME280;3454;42.654;23.378;2023-05-29T12:43:19;64928.72;;;18.59;100.00
6833;BME280;3454;42.654;23.378;2023-05-29T12:45:44;64909.09;;;18.43;100.00
6833;BME280;3454;42.654;23.378;2023-05-29T12:48:09;64883.50;;;18.17;100.00
6833;BME280;3454;42.654;23.378;2023-05-29T12:50:38;64868.41;;;18.01;100.00
6833;BME280;3454;42.654;23.378;2023-05-29T12:53:04;64853.94;;;17.93;100.00
6833;BME280;3454;42.654;23.378;2023-05-29T12:55:32;64849.31;;;17.86;100.00
6833;BME280;3454;42.654;23.378;2023-05-29T12:58:03;64861.63;;;18.00;100.00
6833;BME280;3454;42.654;23.378;2023-05-29T13:00:28;64885.50;;;18.17;100.00
6833;BME280;3454;42.654;23.378;2023-05-29T13:02:54;64909.41;;;18.41;97.59
6833;BME280;3454;42.654;23.378;2023-05-29T13:05:20;64915.16;;;18.49;95.39
6833;BME280;3454;42.654;23.378;2023-05-29T13:07:51;64921.75;;;18.55;96.64
6833;BME280;3454;42.654;23.378;2023-05-29T13:10:18;64924.31;;;18.55;96.57
6833;BME280;3454;42.654;23.378;2023-05-29T13:12:44;64921.75;;;18.55;94.82
6833;BME280;3454;42.654;23.378;2023-05-29T13:15:11;64905.00;;;18.37;100.00
6833;BME280;3454;42.654;23.378;2023-05-29T13:17:38;64892.19;;;18.30;100.00
6833;BME280;3454;42.654;23.378;2023-05-29T13:20:10;64885.91;;;18.22;100.00
6833;BME280;3454;42.654;23.378;2023-05-29T13:22:39;64888.66;;;18.24;100.00
6833;BME280;3454;42.654;23.378;2023-05-29T13:25:06;64896.59;;;18.34;100.00
6833;BME280;3454;42.654;23.378;2023-05-29T13:27:33;64917.16;;;18.48;100.00
6833;BME280;3454;42.654;23.378;2023-05-29T13:30:03;64921.00;;;18.52;100.00
6833;BME280;3454;42.654;23.378;2023-05-29T13:32:29;64917.16;;;18.48;100.00
6833;BME280;3454;42.654;23.378;2023-05-29T13:34:55;64950.25;;;18.78;100.00
6833;BME280;3454;42.654;23.378;2023-05-29T13:37:20;64953.75;;;18.84;100.00